Wattsville, AL (35182)

7:15 PM CST on February 10, 2016 (GMT -0600)
Shoal Creek Valley | | Change Station
CLOSE
Current Station
Personal Weather Station
Location: Ashville, AL
Elevation: 666 ft
Nearby Weather Stations

Elev 666 ft 33.73 °N, 86.33 °W | Updated 4 minutes ago

Clear
Clear
29.1 °F
Feels Like 29 °F
N
0.0
Wind Variable Wind from SSE

Today
High -- | Low -- °F
--% Chance of Precip.
Yesterday
High -- | Low -- °F
Precip. -- in
Pressure 30.25 in
Visibility 10.0 miles
Clouds Few 5500 ft
Windchill 29 °F
Dew Point 18 °F
Humidity 64%
Rainfall 0.00 in
Snow Depth Not available.
6:34 AM 5:24 PM
Waxing Crescent, 8% visible
METAR KGAD 110056Z AUTO 00000KT 10SM FEW055 M01/M10 A3018 RMK AO2 SLP242 T10061100 FZRANO
Pressure 30.25 in
Visibility 10.0 miles
Clouds Few 5500 ft
Windchill 29 °F
Dew Point 18 °F
Humidity 64%
Rainfall 0.00 in
Snow Depth Not available.
6:34 AM 5:24 PM
Waxing Crescent, 8% visible
METAR KGAD 110056Z AUTO 00000KT 10SM FEW055 M01/M10 A3018 RMK AO2 SLP242 T10061100 FZRANO

10-Day Weather Forecast

Almanac

Astronomy

Feb. 10, 2016 Rise Set
Actual Time
Civil Twilight
Nautical Twilight
Astronomical Twilight
Moon
Length of Visible Light
Length of Day
Tomorrow will be .
, % of the Moon is Illuminated

Today's Extremes

State Highs State Lows

Community

WunderPhotos

Upload Photos

1,891,961 photos uploaded!

WunderBlog® & News

Nearby

Air Quality

  Air Quality AQ Index Pollutant
Not available.

Snow Depth

Station Depth Elevation

Earthquake Activity

City Distance Mag. Time & Date
Minimum magnitude displayed is 2.5.

Coastal Water Temperatures

Place Temperature

Stations

Nearby Weather Stations

Station Location Temp. Windchill Dew Point Humidity Wind Precip. Elev Updated Type
                   

Watches & Warnings

There are currently no watches in effect.